sensor_id;sensor_type;location;lat;lon;timestamp;pressure;altitude;pressure_sealevel;temperature;humidity
61014;BME280;46899;47.542;19.082;2023-01-28T00:00:19;100528.44;;;1.22;100.00
61014;BME280;46899;47.542;19.082;2023-01-28T00:03:22;100536.09;;;1.19;100.00
61014;BME280;46899;47.542;19.082;2023-01-28T00:06:24;100532.72;;;1.28;100.00
61014;BME280;46899;47.542;19.082;2023-01-28T00:09:27;100541.28;;;1.30;100.00
61014;BME280;46899;47.542;19.082;2023-01-28T00:12:30;100536.19;;;1.33;100.00
61014;BME280;46899;47.542;19.082;2023-01-28T00:15:32;100539.59;;;1.33;100.00
61014;BME280;46899;47.542;19.082;2023-01-28T00:18:35;100537.84;;;1.22;100.00
61014;BME280;46899;47.542;19.082;2023-01-28T00:21:38;100544.72;;;1.35;100.00
61014;BME280;46899;47.542;19.082;2023-01-28T00:24:40;100548.16;;;1.35;100.00
61014;BME280;46899;47.542;19.082;2023-01-28T00:27:43;100547.31;;;1.36;100.00
61014;BME280;46899;47.542;19.082;2023-01-28T00:30:46;100548.19;;;1.43;100.00
61014;BME280;46899;47.542;19.082;2023-01-28T00:33:49;100549.84;;;1.35;100.00
61014;BME280;46899;47.542;19.082;2023-01-28T00:36:52;100555.87;;;1.43;100.00
61014;BME280;46899;47.542;19.082;2023-01-28T00:40:05;100549.03;;;1.42;100.00
61014;BME280;46899;47.542;19.082;2023-01-28T00:43:09;100549.06;;;1.44;100.00
61014;BME280;46899;47.542;19.082;2023-01-28T00:46:12;100546.47;;;1.36;100.00
61014;BME280;46899;47.542;19.082;2023-01-28T00:49:17;100554.19;;;1.44;100.00
61014;BME280;46899;47.542;19.082;2023-01-28T00:52:20;100557.59;;;1.44;100.00
61014;BME280;46899;47.542;19.082;2023-01-28T00:55:23;100555.94;;;1.51;100.00
61014;BME280;46899;47.542;19.082;2023-01-28T00:58:25;100559.34;;;1.50;100.00
61014;BME280;46899;47.542;19.082;2023-01-28T01:01:28;100568.72;;;1.49;100.00
61014;BME280;46899;47.542;19.082;2023-01-28T01:04:31;100559.31;;;1.45;100.00
61014;BME280;46899;47.542;19.082;2023-01-28T01:07:37;100563.59;;;1.43;100.00
61014;BME280;46899;47.542;19.082;2023-01-28T01:10:45;100568.69;;;1.42;100.00
61014;BME280;46899;47.542;19.082;2023-01-28T01:13:54;100565.28;;;1.44;100.00
61014;BME280;46899;47.542;19.082;2023-01-28T01:16:58;100555.97;;;1.60;100.00
61014;BME280;46899;47.542;19.082;2023-01-28T01:20:03;100562.81;;;1.62;100.00
61014;BME280;46899;47.542;19.082;2023-01-28T01:23:08;100567.94;;;1.64;100.00
61014;BME280;46899;47.542;19.082;2023-01-28T01:26:10;100567.88;;;1.53;100.00
61014;BME280;46899;47.542;19.082;2023-01-28T01:29:14;100566.13;;;1.42;100.00
61014;BME280;46899;47.542;19.082;2023-01-28T01:32:16;100567.84;;;1.43;100.00
61014;BME280;46899;47.542;19.082;2023-01-28T01:35:19;100563.53;;;1.34;100.00
61014;BME280;46899;47.542;19.082;2023-01-28T01:38:22;100564.44;;;1.44;100.00
61014;BME280;46899;47.542;19.082;2023-01-28T01:41:29;100566.09;;;1.35;100.00
61014;BME280;46899;47.542;19.082;2023-01-28T01:51:06;100563.53;;;1.34;100.00
61014;BME280;46899;47.542;19.082;2023-01-28T01:54:12;100567.78;;;1.30;100.00
61014;BME280;46899;47.542;19.082;2023-01-28T01:57:19;100575.41;;;1.21;100.00
61014;BME280;46899;47.542;19.082;2023-01-28T02:00:24;100576.31;;;1.31;100.00
61014;BME280;46899;47.542;19.082;2023-01-28T02:03:32;100571.16;;;1.26;100.00
61014;BME280;46899;47.542;19.082;2023-01-28T02:06:36;100573.69;;;1.25;100.00
61014;BME280;46899;47.542;19.082;2023-01-28T02:09:39;100568.63;;;1.26;100.00
61014;BME280;46899;47.542;19.082;2023-01-28T02:12:43;100566.94;;;1.31;100.00
61014;BME280;46899;47.542;19.082;2023-01-28T02:15:48;100573.69;;;1.25;100.00
61014;BME280;46899;47.542;19.082;2023-01-28T02:18:52;100572.87;;;1.24;100.00
61014;BME280;46899;47.542;19.082;2023-01-28T02:28:08;100573.66;;;1.14;100.00
61014;BME280;46899;47.542;19.082;2023-01-28T02:41:24;100564.31;;;1.22;100.00
61014;BME280;46899;47.542;19.082;2023-01-28T02:44:28;100560.88;;;1.17;100.00
61014;BME280;46899;47.542;19.082;2023-01-28T02:47:30;100554.00;;;1.13;100.00
61014;BME280;46899;47.542;19.082;2023-01-28T02:51:03;100562.56;;;1.18;100.00
61014;BME280;46899;47.542;19.082;2023-01-28T02:54:13;100563.38;;;1.10;100.00
61014;BME280;46899;47.542;19.082;2023-01-28T03:04:04;100555.69;;;1.10;100.00
61014;BME280;46899;47.542;19.082;2023-01-28T03:07:09;100557.41;;;1.08;100.00
61014;BME280;46899;47.542;19.082;2023-01-28T03:10:19;100559.94;;;1.09;100.00
61014;BME280;46899;47.542;19.082;2023-01-28T03:13:22;100561.66;;;1.06;100.00
61014;BME280;46899;47.542;19.082;2023-01-28T03:16:44;100566.75;;;1.01;100.00
61014;BME280;46899;47.542;19.082;2023-01-28T03:20:07;100564.12;;;0.95;100.00
61014;BME280;46899;47.542;19.082;2023-01-28T03:24:16;100563.25;;;0.93;100.00
61014;BME280;46899;47.542;19.082;2023-01-28T03:34:29;100558.16;;;0.98;100.00
61014;BME280;46899;47.542;19.082;2023-01-28T03:37:50;100561.56;;;0.97;100.00
61014;BME280;46899;47.542;19.082;2023-01-28T03:40:55;100563.25;;;0.95;100.00
61014;BME280;46899;47.542;19.082;2023-01-28T03:43:58;100567.53;;;0.93;100.00
61014;BME280;46899;47.542;19.082;2023-01-28T03:47:21;100572.63;;;0.88;100.00
61014;BME280;46899;47.542;19.082;2023-01-28T03:50:24;100573.41;;;0.81;100.00
61014;BME280;46899;47.542;19.082;2023-01-28T03:53:28;100575.94;;;0.78;100.00
61014;BME280;46899;47.542;19.082;2023-01-28T03:56:31;100575.09;;;0.79;100.00
61014;BME280;46899;47.542;19.082;2023-01-28T03:59:34;100573.41;;;0.80;100.00
61014;BME280;46899;47.542;19.082;2023-01-28T04:02:36;100567.47;;;0.85;100.00
61014;BME280;46899;47.542;19.082;2023-01-28T04:05:45;100573.44;;;0.86;100.00
61014;BME280;46899;47.542;19.082;2023-01-28T04:08:48;100568.31;;;0.86;100.00
61014;BME280;46899;47.542;19.082;2023-01-28T04:11:55;100572.63;;;0.88;100.00
61014;BME280;46899;47.542;19.082;2023-01-28T04:14:57;100568.31;;;0.84;100.00
61014;BME280;46899;47.542;19.082;2023-01-28T04:18:00;100571.81;;;0.97;100.00
61014;BME280;46899;47.542;19.082;2023-01-28T04:21:03;100580.38;;;1.02;100.00
61014;BME280;46899;47.542;19.082;2023-01-28T04:24:06;100570.97;;;0.99;100.00
61014;BME280;46899;47.542;19.082;2023-01-28T04:27:08;100581.22;;;0.96;100.00
61014;BME280;46899;47.542;19.082;2023-01-28T04:30:11;100580.38;;;1.00;100.00
61014;BME280;46899;47.542;19.082;2023-01-28T04:33:14;100584.66;;;0.98;100.00
61014;BME280;46899;47.542;19.082;2023-01-28T04:36:17;100589.75;;;0.97;100.00
61014;BME280;46899;47.542;19.082;2023-01-28T04:39:19;100589.78;;;0.98;100.00
61014;BME280;46899;47.542;19.082;2023-01-28T04:42:22;100586.34;;;0.96;100.00
61014;BME280;46899;47.542;19.082;2023-01-28T04:45:26;100589.78;;;1.00;100.00
61014;BME280;46899;47.542;19.082;2023-01-28T04:48:30;100586.37;;;1.02;100.00
61014;BME280;46899;47.542;19.082;2023-01-28T04:51:33;100595.75;;;1.02;100.00
61014;BME280;46899;47.542;19.082;2023-01-28T04:54:36;100594.03;;;0.98;100.00
61014;BME280;46899;47.542;19.082;2023-01-28T04:57:39;100593.19;;;1.00;100.00
61014;BME280;46899;47.542;19.082;2023-01-28T05:00:42;100601.72;;;0.98;100.00
61014;BME280;46899;47.542;19.082;2023-01-28T05:03:44;100601.72;;;0.96;100.00
61014;BME280;46899;47.542;19.082;2023-01-28T05:06:49;100600.03;;;0.98;100.00
61014;BME280;46899;47.542;19.082;2023-01-28T05:09:51;100602.50;;;0.92;100.00
61014;BME280;46899;47.542;19.082;2023-01-28T05:12:55;100605.94;;;0.91;100.00
61014;BME280;46899;47.542;19.082;2023-01-28T05:15:57;100606.81;;;0.95;100.00
61014;BME280;46899;47.542;19.082;2023-01-28T05:19:00;100612.81;;;1.00;100.00
61014;BME280;46899;47.542;19.082;2023-01-28T05:22:05;100609.47;;;1.05;100.00
61014;BME280;46899;47.542;19.082;2023-01-28T05:25:09;100616.25;;;1.02;100.00
61014;BME280;46899;47.542;19.082;2023-01-28T05:28:11;100617.13;;;1.02;100.00
61014;BME280;46899;47.542;19.082;2023-01-28T05:31:15;100617.09;;;0.99;100.00
61014;BME280;46899;47.542;19.082;2023-01-28T05:34:18;100626.44;;;0.91;100.00
61014;BME280;46899;47.542;19.082;2023-01-28T05:37:21;100616.22;;;0.97;100.00
61014;BME280;46899;47.542;19.082;2023-01-28T05:40:25;100629.03;;;0.97;100.00
61014;BME280;46899;47.542;19.082;2023-01-28T05:43:27;100620.44;;;0.92;100.00
61014;BME280;46899;47.542;19.082;2023-01-28T05:46:33;100628.13;;;0.92;100.00
61014;BME280;46899;47.542;19.082;2023-01-28T05:49:36;100634.06;;;0.88;100.00
61014;BME280;46899;47.542;19.082;2023-01-28T05:52:40;100634.13;;;0.91;100.00
61014;BME280;46899;47.542;19.082;2023-01-28T05:55:46;100634.94;;;0.90;100.00
61014;BME280;46899;47.542;19.082;2023-01-28T05:58:49;100632.41;;;0.93;100.00
61014;BME280;46899;47.542;19.082;2023-01-28T06:01:52;100637.53;;;0.93;100.00
61014;BME280;46899;47.542;19.082;2023-01-28T06:04:55;100643.53;;;0.97;100.00
61014;BME280;46899;47.542;19.082;2023-01-28T06:07:58;100641.84;;;0.94;100.00
61014;BME280;46899;47.542;19.082;2023-01-28T06:11:01;100643.50;;;0.89;100.00
61014;BME280;46899;47.542;19.082;2023-01-28T06:14:06;100647.75;;;0.90;100.00
61014;BME280;46899;47.542;19.082;2023-01-28T06:17:10;100647.75;;;0.87;100.00
61014;BME280;46899;47.542;19.082;2023-01-28T06:20:14;100648.53;;;0.83;100.00
61014;BME280;46899;47.542;19.082;2023-01-28T06:23:20;100663.03;;;0.81;100.00
61014;BME280;46899;47.542;19.082;2023-01-28T06:26:23;100663.00;;;0.77;100.00
61014;BME280;46899;47.542;19.082;2023-01-28T06:29:26;100660.47;;;0.83;100.00
61014;BME280;46899;47.542;19.082;2023-01-28T06:32:28;100666.44;;;0.79;100.00
61014;BME280;46899;47.542;19.082;2023-01-28T06:35:31;100667.28;;;0.79;100.00
61014;BME280;46899;47.542;19.082;2023-01-28T06:38:34;100669.78;;;0.73;100.00
61014;BME280;46899;47.542;19.082;2023-01-28T06:41:37;100675.81;;;0.78;100.00
61014;BME280;46899;47.542;19.082;2023-01-28T06:44:39;100681.78;;;0.80;100.00
61014;BME280;46899;47.542;19.082;2023-01-28T06:47:42;100683.53;;;0.80;100.00
61014;BME280;46899;47.542;19.082;2023-01-28T06:50:47;100686.16;;;0.87;100.00
61014;BME280;46899;47.542;19.082;2023-01-28T06:53:50;100692.94;;;0.85;100.00
61014;BME280;46899;47.542;19.082;2023-01-28T06:56:52;100697.16;;;0.80;100.00
61014;BME280;46899;47.542;19.082;2023-01-28T06:59:55;100696.25;;;0.72;100.00
61014;BME280;46899;47.542;19.082;2023-01-28T07:02:57;100707.44;;;0.83;100.00
61014;BME280;46899;47.542;19.082;2023-01-28T07:06:01;100706.56;;;0.83;100.00
61014;BME280;46899;47.542;19.082;2023-01-28T07:09:03;100717.72;;;0.86;100.00
61014;BME280;46899;47.542;19.082;2023-01-28T07:12:06;100709.19;;;0.86;100.00
61014;BME280;46899;47.542;19.082;2023-01-28T07:15:08;100720.31;;;0.91;100.00
61014;BME280;46899;47.542;19.082;2023-01-28T07:18:12;100720.41;;;1.00;100.00
61014;BME280;46899;47.542;19.082;2023-01-28T07:21:17;100723.09;;;1.10;100.00
61014;BME280;46899;47.542;19.082;2023-01-28T07:24:20;100733.34;;;1.13;100.00
61014;BME280;46899;47.542;19.082;2023-01-28T07:27:22;100734.19;;;1.12;100.00
61014;BME280;46899;47.542;19.082;2023-01-28T07:30:25;100735.91;;;1.10;100.00
61014;BME280;46899;47.542;19.082;2023-01-28T07:33:28;100739.41;;;1.21;100.00
61014;BME280;46899;47.542;19.082;2023-01-28T07:36:32;100737.72;;;1.22;100.00
61014;BME280;46899;47.542;19.082;2023-01-28T07:39:34;100736.91;;;1.30;100.00
61014;BME280;46899;47.542;19.082;2023-01-28T07:42:37;100741.22;;;1.33;100.00
61014;BME280;46899;47.542;19.082;2023-01-28T07:45:39;100742.03;;;1.30;100.00
61014;BME280;46899;47.542;19.082;2023-01-28T07:48:42;100744.59;;;1.30;100.00
61014;BME280;46899;47.542;19.082;2023-01-28T07:51:45;100742.91;;;1.29;100.00
61014;BME280;46899;47.542;19.082;2023-01-28T07:54:48;100742.16;;;1.41;100.00
61014;BME280;46899;47.542;19.082;2023-01-28T07:57:52;100748.97;;;1.41;100.00
61014;BME280;46899;47.542;19.082;2023-01-28T08:00:57;100750.66;;;1.42;100.00
61014;BME280;46899;47.542;19.082;2023-01-28T08:04:03;100751.53;;;1.41;100.00
61014;BME280;46899;47.542;19.082;2023-01-28T08:07:05;100750.69;;;1.43;100.00
61014;BME280;46899;47.542;19.082;2023-01-28T08:10:10;100752.44;;;1.47;100.00
61014;BME280;46899;47.542;19.082;2023-01-28T08:13:15;100752.44;;;1.49;100.00
61014;BME280;46899;47.542;19.082;2023-01-28T08:16:18;100761.84;;;1.50;100.00
61014;BME280;46899;47.542;19.082;2023-01-28T08:19:20;100764.53;;;1.62;100.00
61014;BME280;46899;47.542;19.082;2023-01-28T08:22:26;100763.63;;;1.58;100.00
61014;BME280;46899;47.542;19.082;2023-01-28T08:25:29;100763.63;;;1.55;100.00
61014;BME280;46899;47.542;19.082;2023-01-28T08:28:31;100763.56;;;1.49;100.00
61014;BME280;46899;47.542;19.082;2023-01-28T08:31:34;100765.38;;;1.64;100.00
61014;BME280;46899;47.542;19.082;2023-01-28T08:34:36;100771.44;;;1.75;100.00
61014;BME280;46899;47.542;19.082;2023-01-28T08:37:39;100768.09;;;1.85;100.00
61014;BME280;46899;47.542;19.082;2023-01-28T08:40:41;100769.91;;;1.95;100.00
61014;BME280;46899;47.542;19.082;2023-01-28T08:43:44;100770.75;;;1.95;100.00
61014;BME280;46899;47.542;19.082;2023-01-28T08:46:48;100770.78;;;2.03;100.00
61014;BME280;46899;47.542;19.082;2023-01-28T08:49:51;100782.66;;;1.89;100.00
61014;BME280;46899;47.542;19.082;2023-01-28T08:52:55;100783.56;;;1.94;100.00
61014;BME280;46899;47.542;19.082;2023-01-28T08:55:58;100783.66;;;2.11;100.00
61014;BME280;46899;47.542;19.082;2023-01-28T08:59:00;100784.59;;;2.23;100.00
61014;BME280;46899;47.542;19.082;2023-01-28T09:02:03;100790.63;;;2.28;100.00
61014;BME280;46899;47.542;19.082;2023-01-28T09:05:05;100788.94;;;2.30;100.00
61014;BME280;46899;47.542;19.082;2023-01-28T09:08:09;100789.75;;;2.23;100.00
61014;BME280;46899;47.542;19.082;2023-01-28T09:11:12;100782.87;;;2.21;100.00
61014;BME280;46899;47.542;19.082;2023-01-28T09:14:15;100791.44;;;2.23;100.00
61014;BME280;46899;47.542;19.082;2023-01-28T09:17:18;100789.81;;;2.37;100.00
61014;BME280;46899;47.542;19.082;2023-01-28T09:20:20;100798.34;;;2.33;100.00
61014;BME280;46899;47.542;19.082;2023-01-28T09:23:23;100797.59;;;2.53;100.00
61014;BME280;46899;47.542;19.082;2023-01-28T09:26:28;100806.16;;;2.54;100.00
61014;BME280;46899;47.542;19.082;2023-01-28T09:29:34;100807.06;;;2.71;100.00
61014;BME280;46899;47.542;19.082;2023-01-28T09:32:36;100809.66;;;2.74;100.00
61014;BME280;46899;47.542;19.082;2023-01-28T09:35:39;100812.25;;;2.78;100.00
61014;BME280;46899;47.542;19.082;2023-01-28T09:38:41;100811.44;;;2.83;100.00
61014;BME280;46899;47.542;19.082;2023-01-28T09:41:50;100811.38;;;2.76;100.00
61014;BME280;46899;47.542;19.082;2023-01-28T09:45:00;100807.97;;;2.78;100.00
61014;BME280;46899;47.542;19.082;2023-01-28T09:48:04;100806.28;;;2.80;100.00
61014;BME280;46899;47.542;19.082;2023-01-28T09:51:18;100803.75;;;2.93;100.00
61014;BME280;46899;47.542;19.082;2023-01-28T09:57:54;100796.09;;;3.14;100.00
61014;BME280;46899;47.542;19.082;2023-01-28T10:00:59;100802.13;;;3.27;100.00
61014;BME280;46899;47.542;19.082;2023-01-28T10:10:42;100785.81;;;3.26;100.00
61014;BME280;46899;47.542;19.082;2023-01-28T10:17:44;100798.69;;;3.35;100.00
61014;BME280;46899;47.542;19.082;2023-01-28T10:20:22;100793.59;;;3.72;100.00
61014;BME280;46899;47.542;19.082;2023-01-28T10:26:32;100797.00;;;3.87;100.00
61014;BME280;46899;47.542;19.082;2023-01-28T10:29:36;100796.13;;;3.54;100.00
61014;BME280;46899;47.542;19.082;2023-01-28T10:32:43;100800.41;;;3.56;100.00
61014;BME280;46899;47.542;19.082;2023-01-28T10:35:48;100800.41;;;3.97;100.00
61014;BME280;46899;47.542;19.082;2023-01-28T10:38:51;100790.94;;;4.26;100.00
61014;BME280;46899;47.542;19.082;2023-01-28T10:41:54;100794.34;;;4.33;100.00
61014;BME280;46899;47.542;19.082;2023-01-28T10:45:01;100795.16;;;4.54;100.00
61014;BME280;46899;47.542;19.082;2023-01-28T10:48:12;100793.31;;;4.85;100.00
61014;BME280;46899;47.542;19.082;2023-01-28T10:51:17;100799.34;;;4.72;99.79
61014;BME280;46899;47.542;19.082;2023-01-28T10:54:27;100792.28;;;5.12;100.00
61014;BME280;46899;47.542;19.082;2023-01-28T10:57:31;100794.69;;;5.40;95.26
61014;BME280;46899;47.542;19.082;2023-01-28T11:00:35;100790.50;;;5.21;98.77
61014;BME280;46899;47.542;19.082;2023-01-28T11:03:38;100787.84;;;5.30;96.05
61014;BME280;46899;47.542;19.082;2023-01-28T11:06:50;100795.66;;;5.18;97.52
61014;BME280;46899;47.542;19.082;2023-01-28T11:09:52;100790.41;;;5.36;94.66
61014;BME280;46899;47.542;19.082;2023-01-28T11:12:55;100795.38;;;5.64;88.55
61014;BME280;46899;47.542;19.082;2023-01-28T11:16:05;100792.00;;;5.52;91.39
61014;BME280;46899;47.542;19.082;2023-01-28T11:19:09;100796.28;;;5.53;91.65
61014;BME280;46899;47.542;19.082;2023-01-28T11:22:17;100786.78;;;5.59;89.67
61014;BME280;46899;47.542;19.082;2023-01-28T11:25:32;100788.66;;;5.40;82.97
61014;BME280;46899;47.542;19.082;2023-01-28T11:28:38;100783.75;;;5.04;83.23
61014;BME280;46899;47.542;19.082;2023-01-28T11:31:42;100776.22;;;4.55;84.54
61014;BME280;46899;47.542;19.082;2023-01-28T11:34:49;100781.28;;;4.81;82.73
61014;BME280;46899;47.542;19.082;2023-01-28T11:37:52;100777.81;;;4.90;82.04
61014;BME280;46899;47.542;19.082;2023-01-28T11:40:55;100782.91;;;4.99;81.21
61014;BME280;46899;47.542;19.082;2023-01-28T11:43:59;100770.88;;;4.99;81.87
61014;BME280;46899;47.542;19.082;2023-01-28T11:50:35;100777.66;;;5.12;79.05
61014;BME280;46899;47.542;19.082;2023-01-28T11:53:47;100770.91;;;4.96;80.53
61014;BME280;46899;47.542;19.082;2023-01-28T11:57:16;100769.94;;;5.11;81.64
61014;BME280;46899;47.542;19.082;2023-01-28T12:10:00;100766.13;;;5.62;78.15
61014;BME280;46899;47.542;19.082;2023-01-28T12:16:25;100759.91;;;5.88;75.96
61014;BME280;46899;47.542;19.082;2023-01-28T12:19:41;100767.84;;;5.63;74.36
61014;BME280;46899;47.542;19.082;2023-01-28T12:32:12;100759.22;;;5.64;75.85
61014;BME280;46899;47.542;19.082;2023-01-28T12:38:31;100753.97;;;5.73;75.00
61014;BME280;46899;47.542;19.082;2023-01-28T12:41:41;100753.88;;;5.91;73.34
61014;BME280;46899;47.542;19.082;2023-01-28T12:44:48;100760.06;;;5.66;72.47
61014;BME280;46899;47.542;19.082;2023-01-28T12:48:03;100763.44;;;5.74;72.95
61014;BME280;46899;47.542;19.082;2023-01-28T12:51:10;100762.66;;;5.66;74.18
61014;BME280;46899;47.542;19.082;2023-01-28T12:54:18;100765.16;;;5.73;73.14
61014;BME280;46899;47.542;19.082;2023-01-28T12:57:23;100763.47;;;5.71;71.73
61014;BME280;46899;47.542;19.082;2023-01-28T13:04:37;100770.72;;;5.25;74.04
61014;BME280;46899;47.542;19.082;2023-01-28T13:07:07;100774.94;;;5.33;73.12
61014;BME280;46899;47.542;19.082;2023-01-28T13:13:28;100786.41;;;4.85;75.17
61014;BME280;46899;47.542;19.082;2023-01-28T13:16:32;100783.84;;;4.84;74.18
61014;BME280;46899;47.542;19.082;2023-01-28T13:19:40;100774.28;;;5.03;74.05
61014;BME280;46899;47.542;19.082;2023-01-28T13:22:43;100787.28;;;4.81;75.31
61014;BME280;46899;47.542;19.082;2023-01-28T13:25:47;100782.13;;;4.83;74.61
61014;BME280;46899;47.542;19.082;2023-01-28T13:28:50;100782.94;;;4.88;74.21
61014;BME280;46899;47.542;19.082;2023-01-28T13:31:55;100789.78;;;4.95;75.12
61014;BME280;46899;47.542;19.082;2023-01-28T13:34:59;100794.91;;;5.04;73.52
61014;BME280;46899;47.542;19.082;2023-01-28T13:38:12;100793.25;;;4.91;73.74
61014;BME280;46899;47.542;19.082;2023-01-28T13:41:17;100805.31;;;4.89;74.86
61014;BME280;46899;47.542;19.082;2023-01-28T13:44:30;100796.59;;;5.13;74.42
61014;BME280;46899;47.542;19.082;2023-01-28T13:47:33;100796.50;;;5.23;75.83
61014;BME280;46899;47.542;19.082;2023-01-28T13:50:41;100807.84;;;4.98;72.86
61014;BME280;46899;47.542;19.082;2023-01-28T14:09:43;100819.97;;;4.75;76.11
61014;BME280;46899;47.542;19.082;2023-01-28T14:19:13;100819.16;;;4.61;79.57
61014;BME280;46899;47.542;19.082;2023-01-28T14:22:17;100826.97;;;4.40;79.24
61014;BME280;46899;47.542;19.082;2023-01-28T14:25:27;100833.00;;;4.28;82.49
61014;BME280;46899;47.542;19.082;2023-01-28T14:31:36;100834.72;;;4.14;81.83
61014;BME280;46899;47.542;19.082;2023-01-28T14:34:40;100833.03;;;4.11;82.55
61014;BME280;46899;47.542;19.082;2023-01-28T14:37:44;100839.88;;;4.15;83.25
61014;BME280;46899;47.542;19.082;2023-01-28T14:40:52;100840.75;;;4.11;83.78
61014;BME280;46899;47.542;19.082;2023-01-28T14:43:57;100848.47;;;4.08;83.59
61014;BME280;46899;47.542;19.082;2023-01-28T14:54:18;100846.75;;;3.73;95.47
61014;BME280;46899;47.542;19.082;2023-01-28T15:00:54;100849.28;;;3.56;99.22
61014;BME280;46899;47.542;19.082;2023-01-28T15:03:57;100842.44;;;3.46;100.00
61014;BME280;46899;47.542;19.082;2023-01-28T15:07:01;100845.88;;;3.48;100.00
61014;BME280;46899;47.542;19.082;2023-01-28T15:10:24;100853.56;;;3.42;100.00
61014;BME280;46899;47.542;19.082;2023-01-28T15:13:28;100856.94;;;3.27;100.00
61014;BME280;46899;47.542;19.082;2023-01-28T15:16:33;100855.25;;;3.26;100.00
61014;BME280;46899;47.542;19.082;2023-01-28T15:19:37;100867.25;;;3.24;100.00
61014;BME280;46899;47.542;19.082;2023-01-28T15:22:41;100871.50;;;3.21;100.00
61014;BME280;46899;47.542;19.082;2023-01-28T15:25:44;100875.78;;;3.08;100.00
61014;BME280;46899;47.542;19.082;2023-01-28T15:28:47;100876.59;;;3.03;100.00
61014;BME280;46899;47.542;19.082;2023-01-28T15:31:50;100890.25;;;2.91;100.00
61014;BME280;46899;47.542;19.082;2023-01-28T15:34:53;100884.22;;;2.88;100.00
61014;BME280;46899;47.542;19.082;2023-01-28T15:37:55;100891.06;;;2.86;100.00
61014;BME280;46899;47.542;19.082;2023-01-28T15:40:59;100882.47;;;2.79;100.00
61014;BME280;46899;47.542;19.082;2023-01-28T15:44:02;100894.37;;;2.62;100.00
61014;BME280;46899;47.542;19.082;2023-01-28T15:47:15;100895.25;;;2.65;100.00
61014;BME280;46899;47.542;19.082;2023-01-28T15:50:24;100901.25;;;2.61;100.00
61014;BME280;46899;47.542;19.082;2023-01-28T15:53:28;100897.78;;;2.58;100.00
61014;BME280;46899;47.542;19.082;2023-01-28T15:56:32;100902.09;;;2.59;100.00
61014;BME280;46899;47.542;19.082;2023-01-28T15:59:35;100908.03;;;2.52;100.00
61014;BME280;46899;47.542;19.082;2023-01-28T16:02:45;100912.28;;;2.51;100.00
61014;BME280;46899;47.542;19.082;2023-01-28T16:09:26;100922.50;;;2.42;100.00
61014;BME280;46899;47.542;19.082;2023-01-28T16:12:29;100925.09;;;2.44;100.00
61014;BME280;46899;47.542;19.082;2023-01-28T16:15:32;100932.75;;;2.38;100.00
61014;BME280;46899;47.542;19.082;2023-01-28T16:18:38;100931.84;;;2.33;100.00
61014;BME280;46899;47.542;19.082;2023-01-28T16:21:44;100933.56;;;2.34;100.00
61014;BME280;46899;47.542;19.082;2023-01-28T16:24:48;100934.38;;;2.30;100.00
61014;BME280;46899;47.542;19.082;2023-01-28T16:27:53;100941.19;;;2.23;100.00
61014;BME280;46899;47.542;19.082;2023-01-28T16:30:57;100936.06;;;2.26;100.00
61014;BME280;46899;47.542;19.082;2023-01-28T16:34:00;100942.88;;;2.24;100.00
61014;BME280;46899;47.542;19.082;2023-01-28T16:37:07;100950.59;;;2.23;100.00
61014;BME280;46899;47.542;19.082;2023-01-28T16:40:14;100950.56;;;2.20;100.00
61014;BME280;46899;47.542;19.082;2023-01-28T16:43:17;100953.94;;;2.17;100.00
61014;BME280;46899;47.542;19.082;2023-01-28T16:46:19;100958.22;;;2.14;100.00
61014;BME280;46899;47.542;19.082;2023-01-28T16:49:23;100955.66;;;2.14;100.00
61014;BME280;46899;47.542;19.082;2023-01-28T16:52:26;100952.19;;;2.08;100.00
61014;BME280;46899;47.542;19.082;2023-01-28T16:55:28;100956.44;;;2.06;100.00
61014;BME280;46899;47.542;19.082;2023-01-28T16:58:31;100960.62;;;1.97;100.00
61014;BME280;46899;47.542;19.082;2023-01-28T17:01:34;100953.75;;;1.96;100.00
61014;BME280;46899;47.542;19.082;2023-01-28T17:04:37;100962.28;;;1.93;100.00
61014;BME280;46899;47.542;19.082;2023-01-28T17:07:40;100958.84;;;1.88;100.00
61014;BME280;46899;47.542;19.082;2023-01-28T17:10:43;100957.19;;;1.95;100.00
61014;BME280;46899;47.542;19.082;2023-01-28T17:13:46;100961.47;;;1.94;100.00
61014;BME280;46899;47.542;19.082;2023-01-28T17:16:48;100969.94;;;1.86;100.00
61014;BME280;46899;47.542;19.082;2023-01-28T17:19:51;100973.34;;;1.86;100.00
61014;BME280;46899;47.542;19.082;2023-01-28T17:22:53;100973.38;;;1.91;100.00
61014;BME280;46899;47.542;19.082;2023-01-28T17:26:01;100977.62;;;1.87;100.00
61014;BME280;46899;47.542;19.082;2023-01-28T17:29:04;100974.16;;;1.81;100.00
61014;BME280;46899;47.542;19.082;2023-01-28T17:32:07;100986.16;;;1.83;100.00
61014;BME280;46899;47.542;19.082;2023-01-28T17:35:12;100987.88;;;1.86;100.00
61014;BME280;46899;47.542;19.082;2023-01-28T17:38:16;100990.41;;;1.83;100.00
61014;BME280;46899;47.542;19.082;2023-01-28T17:41:19;100997.28;;;1.87;100.00
61014;BME280;46899;47.542;19.082;2023-01-28T17:44:22;101002.47;;;1.90;100.00
61014;BME280;46899;47.542;19.082;2023-01-28T17:47:24;100994.72;;;1.85;100.00
61014;BME280;46899;47.542;19.082;2023-01-28T17:50:27;101004.94;;;1.84;100.00
61014;BME280;46899;47.542;19.082;2023-01-28T17:53:29;101012.59;;;1.79;100.00
61014;BME280;46899;47.542;19.082;2023-01-28T17:56:33;101010.06;;;1.84;100.00
61014;BME280;46899;47.542;19.082;2023-01-28T17:59:35;101005.75;;;1.80;100.00
61014;BME280;46899;47.542;19.082;2023-01-28T18:02:39;101010.84;;;1.74;100.00
61014;BME280;46899;47.542;19.082;2023-01-28T18:05:41;101013.37;;;1.72;100.00